sensor_id;sensor_type;location;lat;lon;timestamp;pressure;altitude;pressure_sealevel;temperature;humidity
62122;BME280;48108;47.532;19.084;2024-01-25T04:59:26;69364.53;;;7.15;100.00
62122;BME280;48108;47.532;19.084;2024-01-25T05:02:31;69290.44;;;7.01;100.00
62122;BME280;48108;47.532;19.084;2024-01-25T05:05:33;69296.00;;;7.03;100.00
62122;BME280;48108;47.532;19.084;2024-01-25T05:08:36;69302.59;;;7.12;100.00
62122;BME280;48108;47.532;19.084;2024-01-25T05:11:40;69298.88;;;7.06;100.00
62122;BME280;48108;47.532;19.084;2024-01-25T05:14:43;69286.38;;;6.97;100.00
62122;BME280;48108;47.532;19.084;2024-01-25T05:17:46;69288.47;;;6.97;100.00
62122;BME280;48108;47.532;19.084;2024-01-25T05:20:49;69357.56;;;7.09;100.00
62122;BME280;48108;47.532;19.084;2024-01-25T05:23:52;69311.88;;;7.20;100.00
62122;BME280;48108;47.532;19.084;2024-01-25T05:26:56;69318.59;;;7.23;100.00
62122;BME280;48108;47.532;19.084;2024-01-25T05:29:59;69362.22;;;7.13;100.00
62122;BME280;48108;47.532;19.084;2024-01-25T05:33:02;69319.41;;;7.26;100.00
62122;BME280;48108;47.532;19.084;2024-01-25T05:36:05;69318.84;;;7.26;100.00
62122;BME280;48108;47.532;19.084;2024-01-25T05:39:09;69329.94;;;7.31;100.00
62122;BME280;48108;47.532;19.084;2024-01-25T05:42:12;69401.66;;;7.47;100.00
62122;BME280;48108;47.532;19.084;2024-01-25T05:45:15;69400.50;;;7.46;100.00
62122;BME280;48108;47.532;19.084;2024-01-25T05:48:19;69383.69;;;7.32;100.00
62122;BME280;48108;47.532;19.084;2024-01-25T05:51:23;69337.94;;;7.43;100.00
62122;BME280;48108;47.532;19.084;2024-01-25T05:54:26;69347.34;;;7.46;100.00
62122;BME280;48108;47.532;19.084;2024-01-25T05:57:32;69390.63;;;7.38;100.00
62122;BME280;48108;47.532;19.084;2024-01-25T06:00:37;69322.31;;;7.29;100.00
62122;BME280;48108;47.532;19.084;2024-01-25T06:03:40;69324.97;;;7.29;100.00
62122;BME280;48108;47.532;19.084;2024-01-25T06:06:44;69326.38;;;7.33;100.00
62122;BME280;48108;47.532;19.084;2024-01-25T06:09:48;69324.63;;;7.31;100.00
62122;BME280;48108;47.532;19.084;2024-01-25T06:12:51;69328.44;;;7.32;100.00
62122;BME280;48108;47.532;19.084;2024-01-25T06:15:54;69370.91;;;7.20;100.00
62122;BME280;48108;47.532;19.084;2024-01-25T06:18:57;69311.28;;;7.19;100.00
62122;BME280;48108;47.532;19.084;2024-01-25T06:22:03;69306.09;;;7.15;100.00
62122;BME280;48108;47.532;19.084;2024-01-25T06:25:06;69309.91;;;7.16;100.00
62122;BME280;48108;47.532;19.084;2024-01-25T06:28:10;69366.84;;;7.17;100.00
62122;BME280;48108;47.532;19.084;2024-01-25T06:31:14;69308.75;;;7.15;100.00
62122;BME280;48108;47.532;19.084;2024-01-25T06:34:17;69302.38;;;7.09;100.00
62122;BME280;48108;47.532;19.084;2024-01-25T06:37:20;69299.13;;;7.09;100.00
62122;BME280;48108;47.532;19.084;2024-01-25T06:40:26;69306.09;;;7.15;100.00
62122;BME280;48108;47.532;19.084;2024-01-25T06:43:29;69367.19;;;7.15;100.00
62122;BME280;48108;47.532;19.084;2024-01-25T06:46:32;69319.75;;;7.24;100.00
62122;BME280;48108;47.532;19.084;2024-01-25T06:49:35;69318.03;;;7.23;100.00
62122;BME280;48108;47.532;19.084;2024-01-25T06:52:38;69322.97;;;7.25;100.00
62122;BME280;48108;47.532;19.084;2024-01-25T06:55:41;69372.41;;;7.19;100.00
62122;BME280;48108;47.532;19.084;2024-01-25T06:58:44;69324.63;;;7.31;100.00
62122;BME280;48108;47.532;19.084;2024-01-25T07:01:48;69334.81;;;7.38;100.00
62122;BME280;48108;47.532;19.084;2024-01-25T07:04:51;69325.22;;;7.32;100.00
62122;BME280;48108;47.532;19.084;2024-01-25T07:07:57;69392.38;;;7.39;100.00
62122;BME280;48108;47.532;19.084;2024-01-25T07:11:00;69398.75;;;7.45;100.00
62122;BME280;48108;47.532;19.084;2024-01-25T07:14:04;69355.09;;;7.56;100.00
62122;BME280;48108;47.532;19.084;2024-01-25T07:17:10;69363.56;;;7.61;100.00
62122;BME280;48108;47.532;19.084;2024-01-25T07:20:13;69369.59;;;7.68;100.00
62122;BME280;48108;47.532;19.084;2024-01-25T07:23:17;69443.44;;;7.84;100.00
62122;BME280;48108;47.532;19.084;2024-01-25T07:26:20;69401.50;;;7.97;100.00
62122;BME280;48108;47.532;19.084;2024-01-25T07:29:24;69485.22;;;8.21;100.00
62122;BME280;48108;47.532;19.084;2024-01-25T07:32:27;69449.31;;;8.41;100.00
62122;BME280;48108;47.532;19.084;2024-01-25T07:35:32;69499.53;;;8.83;100.00
62122;BME280;48108;47.532;19.084;2024-01-25T07:38:35;69509.63;;;8.94;96.74
62122;BME280;48108;47.532;19.084;2024-01-25T07:41:38;69570.00;;;8.96;95.84
62122;BME280;48108;47.532;19.084;2024-01-25T07:44:41;69546.22;;;8.75;95.94
62122;BME280;48108;47.532;19.084;2024-01-25T07:47:44;69543.63;;;8.70;96.50
62122;BME280;48108;47.532;19.084;2024-01-25T07:50:47;69536.34;;;8.66;95.78
62122;BME280;48108;47.532;19.084;2024-01-25T07:53:50;69546.78;;;8.75;93.71
62122;BME280;48108;47.532;19.084;2024-01-25T07:56:53;69495.72;;;8.82;92.65
62122;BME280;48108;47.532;19.084;2024-01-25T07:59:56;69495.47;;;8.79;92.33
62122;BME280;48108;47.532;19.084;2024-01-25T08:02:59;69551.41;;;8.79;91.26
62122;BME280;48108;47.532;19.084;2024-01-25T08:06:02;69496.66;;;8.80;90.95
62122;BME280;48108;47.532;19.084;2024-01-25T08:09:06;69495.47;;;8.79;88.99
62122;BME280;48108;47.532;19.084;2024-01-25T08:12:09;69505.69;;;8.86;89.40
62122;BME280;48108;47.532;19.084;2024-01-25T08:15:20;69563.03;;;8.90;88.39
62122;BME280;48108;47.532;19.084;2024-01-25T08:18:23;69509.41;;;8.92;87.02
62122;BME280;48108;47.532;19.084;2024-01-25T08:21:26;69572.69;;;8.96;85.60
62122;BME280;48108;47.532;19.084;2024-01-25T08:24:34;69585.69;;;9.09;83.75
62122;BME280;48108;47.532;19.084;2024-01-25T08:27:40;69594.75;;;9.15;83.65
62122;BME280;48108;47.532;19.084;2024-01-25T08:30:50;69556.44;;;9.33;82.19
62122;BME280;48108;47.532;19.084;2024-01-25T08:33:53;69566.88;;;9.42;81.39
62122;BME280;48108;47.532;19.084;2024-01-25T08:36:58;69566.53;;;9.44;81.66
62122;BME280;48108;47.532;19.084;2024-01-25T08:40:01;69638.56;;;9.56;80.14
62122;BME280;48108;47.532;19.084;2024-01-25T08:43:04;69654.84;;;9.70;79.46
62122;BME280;48108;47.532;19.084;2024-01-25T08:46:08;69642.03;;;9.59;79.57
62122;BME280;48108;47.532;19.084;2024-01-25T08:49:11;69644.94;;;9.62;80.40
62122;BME280;48108;47.532;19.084;2024-01-25T08:52:15;69597.06;;;9.69;78.90
62122;BME280;48108;47.532;19.084;2024-01-25T08:55:18;69663.22;;;9.80;77.29
62122;BME280;48108;47.532;19.084;2024-01-25T08:58:22;69617.41;;;9.87;77.20
62122;BME280;48108;47.532;19.084;2024-01-25T09:01:25;69678.66;;;9.91;76.84
62122;BME280;48108;47.532;19.084;2024-01-25T09:04:28;69611.00;;;9.81;74.91
62122;BME280;48108;47.532;19.084;2024-01-25T09:07:31;69604.63;;;9.75;74.60
62122;BME280;48108;47.532;19.084;2024-01-25T09:10:34;69665.88;;;9.80;76.39
62122;BME280;48108;47.532;19.084;2024-01-25T09:13:37;69667.28;;;9.84;75.44
62122;BME280;48108;47.532;19.084;2024-01-25T09:16:48;69683.91;;;9.96;75.64
62122;BME280;48108;47.532;19.084;2024-01-25T09:19:51;69690.88;;;10.02;73.61
62122;BME280;48108;47.532;19.084;2024-01-25T09:22:55;69666.72;;;9.83;73.38
62122;BME280;48108;47.532;19.084;2024-01-25T09:25:58;69618.56;;;9.88;74.00
62122;BME280;48108;47.532;19.084;2024-01-25T09:29:01;69676.94;;;9.90;74.48
62122;BME280;48108;47.532;19.084;2024-01-25T09:32:08;69675.41;;;9.91;72.97
62122;BME280;48108;47.532;19.084;2024-01-25T09:35:12;69637.97;;;10.07;72.91
62122;BME280;48108;47.532;19.084;2024-01-25T09:38:16;69688.53;;;10.00;72.35
62122;BME280;48108;47.532;19.084;2024-01-25T09:41:18;69703.44;;;10.11;70.62
62122;BME280;48108;47.532;19.084;2024-01-25T09:44:24;69694.69;;;10.03;70.64
62122;BME280;48108;47.532;19.084;2024-01-25T09:47:27;69679.25;;;9.92;71.05
62122;BME280;48108;47.532;19.084;2024-01-25T09:50:31;69697.84;;;10.08;72.31
62122;BME280;48108;47.532;19.084;2024-01-25T09:53:37;69642.38;;;10.09;72.49
62122;BME280;48108;47.532;19.084;2024-01-25T09:56:41;69638.31;;;10.05;70.84
62122;BME280;48108;47.532;19.084;2024-01-25T09:59:45;69672.88;;;9.86;71.89
62122;BME280;48108;47.532;19.084;2024-01-25T10:02:49;69650.78;;;9.67;73.05
62122;BME280;48108;47.532;19.084;2024-01-25T10:05:55;69584.31;;;9.58;74.23
62122;BME280;48108;47.532;19.084;2024-01-25T10:08:58;69588.94;;;9.62;74.46
62122;BME280;48108;47.532;19.084;2024-01-25T10:12:01;69622.03;;;9.91;74.59
62122;BME280;48108;47.532;19.084;2024-01-25T10:15:19;69678.91;;;9.94;71.72
62122;BME280;48108;47.532;19.084;2024-01-25T10:18:23;69686.00;;;9.95;69.91
62122;BME280;48108;47.532;19.084;2024-01-25T10:21:32;69612.16;;;9.82;69.21
62122;BME280;48108;47.532;19.084;2024-01-25T10:24:35;69675.19;;;9.88;70.98
62122;BME280;48108;47.532;19.084;2024-01-25T10:27:39;69685.66;;;9.97;68.40
62122;BME280;48108;47.532;19.084;2024-01-25T10:30:43;69637.72;;;10.05;69.08
62122;BME280;48108;47.532;19.084;2024-01-25T10:33:47;69644.69;;;10.11;69.55
62122;BME280;48108;47.532;19.084;2024-01-25T10:36:51;69709.50;;;10.18;68.95
62122;BME280;48108;47.532;19.084;2024-01-25T10:39:55;69658.63;;;10.23;67.35
62122;BME280;48108;47.532;19.084;2024-01-25T10:43:00;69718.56;;;10.24;67.00
62122;BME280;48108;47.532;19.084;2024-01-25T10:46:05;69676.09;;;10.38;66.75
62122;BME280;48108;47.532;19.084;2024-01-25T10:49:08;69671.44;;;10.34;66.24
62122;BME280;48108;47.532;19.084;2024-01-25T10:52:12;69745.56;;;10.50;66.91
62122;BME280;48108;47.532;19.084;2024-01-25T10:55:16;69669.94;;;10.35;66.50
62122;BME280;48108;47.532;19.084;2024-01-25T10:58:20;69740.09;;;10.43;65.83
62122;BME280;48108;47.532;19.084;2024-01-25T11:01:22;69660.97;;;10.25;66.74
62122;BME280;48108;47.532;19.084;2024-01-25T11:04:29;69710.66;;;10.19;66.50
62122;BME280;48108;47.532;19.084;2024-01-25T11:07:41;69648.19;;;10.14;66.87
62122;BME280;48108;47.532;19.084;2024-01-25T11:10:49;69651.44;;;10.14;64.78
62122;BME280;48108;47.532;19.084;2024-01-25T11:13:55;69641.22;;;10.08;65.30
62122;BME280;48108;47.532;19.084;2024-01-25T11:16:58;69642.97;;;10.09;65.04
62122;BME280;48108;47.532;19.084;2024-01-25T11:20:02;69659.44;;;10.26;65.07
62122;BME280;48108;47.532;19.084;2024-01-25T11:23:07;69719.97;;;10.28;63.15
62122;BME280;48108;47.532;19.084;2024-01-25T11:26:11;69665.41;;;10.27;63.18
62122;BME280;48108;47.532;19.084;2024-01-25T11:29:19;69723.47;;;10.31;62.22
62122;BME280;48108;47.532;19.084;2024-01-25T11:32:23;69655.16;;;10.20;63.59
62122;BME280;48108;47.532;19.084;2024-01-25T11:35:26;69662.13;;;10.26;64.29
62122;BME280;48108;47.532;19.084;2024-01-25T11:38:30;69683.66;;;10.45;63.61
62122;BME280;48108;47.532;19.084;2024-01-25T11:41:33;69747.31;;;10.52;63.06
62122;BME280;48108;47.532;19.084;2024-01-25T11:44:36;69694.47;;;10.52;63.46
62122;BME280;48108;47.532;19.084;2024-01-25T11:47:40;69787.78;;;10.85;61.17
62122;BME280;48108;47.532;19.084;2024-01-25T11:50:43;69799.66;;;10.98;59.82
62122;BME280;48108;47.532;19.084;2024-01-25T11:53:49;69756.91;;;11.09;59.54
62122;BME280;48108;47.532;19.084;2024-01-25T11:56:52;69835.75;;;11.29;59.79
62122;BME280;48108;47.532;19.084;2024-01-25T11:59:56;69833.44;;;11.74;57.36
62122;BME280;48108;47.532;19.084;2024-01-25T12:03:09;69856.47;;;11.45;57.13
62122;BME280;48108;47.532;19.084;2024-01-25T12:06:12;69795.25;;;11.43;55.91
62122;BME280;48108;47.532;19.084;2024-01-25T12:09:15;69881.13;;;11.69;55.92
62122;BME280;48108;47.532;19.084;2024-01-25T12:12:19;69854.06;;;11.95;53.87
62122;BME280;48108;47.532;19.084;2024-01-25T12:15:21;69953.16;;;12.30;52.55
62122;BME280;48108;47.532;19.084;2024-01-25T12:18:28;69889.31;;;12.23;53.70
62122;BME280;48108;47.532;19.084;2024-01-25T12:21:33;69871.50;;;12.10;53.03
62122;BME280;48108;47.532;19.084;2024-01-25T12:24:36;69937.84;;;12.68;51.38
62122;BME280;48108;47.532;19.084;2024-01-25T12:27:42;70088.97;;;13.49;48.14
62122;BME280;48108;47.532;19.084;2024-01-25T12:30:48;70027.91;;;13.45;47.75
62122;BME280;48108;47.532;19.084;2024-01-25T12:33:51;70128.16;;;14.33;46.10
62122;BME280;48108;47.532;19.084;2024-01-25T12:36:54;70194.66;;;14.91;44.05
62122;BME280;48108;47.532;19.084;2024-01-25T12:40:00;70097.84;;;14.06;44.68
62122;BME280;48108;47.532;19.084;2024-01-25T12:43:04;70193.72;;;14.93;43.89
62122;BME280;48108;47.532;19.084;2024-01-25T12:46:07;70237.84;;;15.29;42.24
62122;BME280;48108;47.532;19.084;2024-01-25T12:49:28;70200.72;;;14.99;42.06
62122;BME280;48108;47.532;19.084;2024-01-25T12:52:32;70215.31;;;15.12;42.11
62122;BME280;48108;47.532;19.084;2024-01-25T12:55:35;70214.50;;;15.09;41.86
62122;BME280;48108;47.532;19.084;2024-01-25T12:58:39;70276.94;;;15.63;40.77
62122;BME280;48108;47.532;19.084;2024-01-25T13:01:43;70322.41;;;15.54;40.26
62122;BME280;48108;47.532;19.084;2024-01-25T13:04:46;70341.75;;;16.20;39.76
62122;BME280;48108;47.532;19.084;2024-01-25T13:07:49;70300.31;;;15.84;39.27
62122;BME280;48108;47.532;19.084;2024-01-25T13:10:53;70148.00;;;14.50;41.83
62122;BME280;48108;47.532;19.084;2024-01-25T13:13:56;70108.38;;;14.16;42.78
62122;BME280;48108;47.532;19.084;2024-01-25T13:16:59;70033.97;;;13.53;44.88
62122;BME280;48108;47.532;19.084;2024-01-25T13:20:06;69896.53;;;12.32;48.29
62122;BME280;48108;47.532;19.084;2024-01-25T13:23:09;69751.06;;;11.04;52.53
62122;BME280;48108;47.532;19.084;2024-01-25T13:26:16;69675.88;;;10.36;54.97
62122;BME280;48108;47.532;19.084;2024-01-25T13:29:19;69640.63;;;10.07;56.85
62122;BME280;48108;47.532;19.084;2024-01-25T13:32:22;69612.75;;;9.83;58.14
62122;BME280;48108;47.532;19.084;2024-01-25T13:35:26;69587.53;;;9.58;60.21
62122;BME280;48108;47.532;19.084;2024-01-25T13:38:32;69572.09;;;9.47;59.55
62122;BME280;48108;47.532;19.084;2024-01-25T13:41:34;69550.28;;;9.30;62.03
62122;BME280;48108;47.532;19.084;2024-01-25T13:44:38;69545.97;;;9.24;61.46
62122;BME280;48108;47.532;19.084;2024-01-25T13:47:44;69543.91;;;9.24;62.62
62122;BME280;48108;47.532;19.084;2024-01-25T13:50:47;69597.88;;;9.20;62.90
62122;BME280;48108;47.532;19.084;2024-01-25T13:53:51;69544.81;;;9.23;61.59
62122;BME280;48108;47.532;19.084;2024-01-25T13:56:54;69544.25;;;9.22;62.61
62122;BME280;48108;47.532;19.084;2024-01-25T13:59:57;69602.31;;;9.22;62.53
62122;BME280;48108;47.532;19.084;2024-01-25T14:03:01;69541.56;;;9.22;61.72
62122;BME280;48108;47.532;19.084;2024-01-25T14:06:04;69527.97;;;9.08;62.86
62122;BME280;48108;47.532;19.084;2024-01-25T14:09:08;69533.22;;;9.13;62.51
62122;BME280;48108;47.532;19.084;2024-01-25T14:12:11;69530.31;;;9.10;62.92
62122;BME280;48108;47.532;19.084;2024-01-25T14:15:14;69585.09;;;9.09;62.80
62122;BME280;48108;47.532;19.084;2024-01-25T14:18:18;69519.28;;;9.00;63.25
62122;BME280;48108;47.532;19.084;2024-01-25T14:21:21;69503.84;;;8.89;64.19
62122;BME280;48108;47.532;19.084;2024-01-25T14:24:24;69502.78;;;8.83;64.69
62122;BME280;48108;47.532;19.084;2024-01-25T14:27:28;69497.56;;;8.79;64.76
62122;BME280;48108;47.532;19.084;2024-01-25T14:30:33;69501.63;;;8.82;64.76
62122;BME280;48108;47.532;19.084;2024-01-25T14:33:36;69485.63;;;8.71;65.76
62122;BME280;48108;47.532;19.084;2024-01-25T14:36:42;69482.72;;;8.68;65.31
62122;BME280;48108;47.532;19.084;2024-01-25T14:39:45;69476.31;;;8.62;65.40
62122;BME280;48108;47.532;19.084;2024-01-25T14:43:09;69536.09;;;8.63;66.10
62122;BME280;48108;47.532;19.084;2024-01-25T14:46:13;69536.91;;;8.67;65.13
62122;BME280;48108;47.532;19.084;2024-01-25T14:49:21;69479.22;;;8.65;64.37
62122;BME280;48108;47.532;19.084;2024-01-25T14:52:24;69495.81;;;8.77;64.37
62122;BME280;48108;47.532;19.084;2024-01-25T14:55:27;69499.53;;;8.83;63.97
62122;BME280;48108;47.532;19.084;2024-01-25T14:58:30;69507.09;;;8.90;62.71
62122;BME280;48108;47.532;19.084;2024-01-25T15:01:34;69507.66;;;8.90;61.94
62122;BME280;48108;47.532;19.084;2024-01-25T15:04:37;69507.09;;;8.90;63.05
62122;BME280;48108;47.532;19.084;2024-01-25T15:07:40;69498.38;;;8.82;62.78
62122;BME280;48108;47.532;19.084;2024-01-25T15:10:43;69500.13;;;8.83;64.06
62122;BME280;48108;47.532;19.084;2024-01-25T15:13:47;69498.63;;;8.84;63.52
62122;BME280;48108;47.532;19.084;2024-01-25T15:16:51;69487.69;;;8.70;62.37
62122;BME280;48108;47.532;19.084;2024-01-25T15:19:54;69492.00;;;8.76;62.07
62122;BME280;48108;47.532;19.084;2024-01-25T15:22:57;69488.19;;;8.75;62.18
62122;BME280;48108;47.532;19.084;2024-01-25T15:26:03;69480.41;;;8.66;62.47
62122;BME280;48108;47.532;19.084;2024-01-25T15:29:07;69542.13;;;8.71;62.32
62122;BME280;48108;47.532;19.084;2024-01-25T15:32:10;69479.59;;;8.63;63.09
62122;BME280;48108;47.532;19.084;2024-01-25T15:35:14;69532.84;;;8.63;63.42
62122;BME280;48108;47.532;19.084;2024-01-25T15:38:17;69476.69;;;8.60;62.14
62122;BME280;48108;47.532;19.084;2024-01-25T15:41:21;69462.75;;;8.48;62.74
62122;BME280;48108;47.532;19.084;2024-01-25T15:44:25;69457.78;;;8.46;63.10
62122;BME280;48108;47.532;19.084;2024-01-25T15:47:27;69460.69;;;8.49;63.14
62122;BME280;48108;47.532;19.084;2024-01-25T15:50:30;69454.63;;;8.41;63.57
62122;BME280;48108;47.532;19.084;2024-01-25T15:53:33;69446.50;;;8.34;63.83
62122;BME280;48108;47.532;19.084;2024-01-25T15:56:36;69436.28;;;8.27;64.22
62122;BME280;48108;47.532;19.084;2024-01-25T15:59:39;69443.59;;;8.31;64.67
62122;BME280;48108;47.532;19.084;2024-01-25T16:02:42;69431.06;;;8.23;63.91
62122;BME280;48108;47.532;19.084;2024-01-25T16:05:45;69423.50;;;8.16;64.35
62122;BME280;48108;47.532;19.084;2024-01-25T16:08:49;69432.47;;;8.26;64.86
62122;BME280;48108;47.532;19.084;2024-01-25T16:11:54;69422.13;;;8.12;64.96
62122;BME280;48108;47.532;19.084;2024-01-25T16:14:57;69419.22;;;8.10;65.59
62122;BME280;48108;47.532;19.084;2024-01-25T16:18:04;69457.03;;;7.99;66.21
62122;BME280;48108;47.532;19.084;2024-01-25T16:21:07;69399.16;;;7.94;66.02
62122;BME280;48108;47.532;19.084;2024-01-25T16:24:10;69441.34;;;7.85;66.59
62122;BME280;48108;47.532;19.084;2024-01-25T16:27:13;69433.00;;;7.75;67.12
62122;BME280;48108;47.532;19.084;2024-01-25T16:30:17;69361.13;;;7.63;66.95
62122;BME280;48108;47.532;19.084;2024-01-25T16:33:22;69364.72;;;7.62;68.00
62122;BME280;48108;47.532;19.084;2024-01-25T16:36:25;69362.06;;;7.62;67.08
62122;BME280;48108;47.532;19.084;2024-01-25T16:39:28;69345.84;;;7.47;68.88
62122;BME280;48108;47.532;19.084;2024-01-25T16:42:31;69329.03;;;7.33;69.44
62122;BME280;48108;47.532;19.084;2024-01-25T16:45:34;69320.56;;;7.27;70.28
62122;BME280;48108;47.532;19.084;2024-01-25T16:48:40;69320.00;;;7.27;70.08
62122;BME280;48108;47.532;19.084;2024-01-25T16:51:43;69300.63;;;7.08;71.87
62122;BME280;48108;47.532;19.084;2024-01-25T16:54:47;69304.44;;;7.09;71.81
62122;BME280;48108;47.532;19.084;2024-01-25T16:57:50;69293.41;;;6.99;72.95
